Time;durP1;ratioP1;P1;durP2;ratioP2;P2;SDS_P1;SDS_P2;PMS_P1;PMS_P2;Temp;Humidity;BMP_temperature;BMP_pressure;BME280_temperature;BME280_humidity;BME280_pressure;Samples;Min_cycle;Max_cycle;Signal;HPM_P1;HPM_P2
2021/03/09 00:00:46;;;;;;;16.95;7.95;;;;;;;11.66;77.78;101159.91;5008877;28;20481;-67
2021/03/09 00:03:13;;;;;;;19.73;7.45;;;;;;;11.64;77.40;101159.88;5009861;28;20046;-68
2021/03/09 00:05:41;;;;;;;14.40;6.60;;;;;;;11.55;77.45;101154.44;5009669;28;20058;-68
2021/03/09 00:08:08;;;;;;;12.52;5.78;;;;;;;11.56;77.40;101154.44;5003667;28;20038;-67
2021/03/09 00:10:35;;;;;;;13.13;5.40;;;;;;;11.59;77.21;101164.19;5013078;28;20130;-68
2021/03/09 00:13:02;;;;;;;15.68;7.50;;;;;;;11.53;77.40;101183.50;5013856;28;20100;-68
2021/03/09 00:15:29;;;;;;;25.98;10.98;;;;;;;11.43;77.70;101180.63;5013622;28;20129;-69
2021/03/09 00:17:58;;;;;;;24.88;12.93;;;;;;;11.44;77.93;101182.41;5013356;28;20056;-68
2021/03/09 00:20:25;;;;;;;30.73;14.15;;;;;;;11.37;77.85;101189.34;5013147;28;20048;-68
2021/03/09 00:22:52;;;;;;;30.92;13.88;;;;;;;11.28;78.24;101181.25;5013943;28;20041;-67
2021/03/09 00:25:20;;;;;;;15.13;7.43;;;;;;;11.32;78.18;101184.81;5013482;28;20044;-68
2021/03/09 00:27:47;;;;;;;13.02;6.50;;;;;;;11.36;77.98;101191.94;5012770;28;20046;-68
2021/03/09 00:30:15;;;;;;;16.80;7.13;;;;;;;11.47;77.70;101193.06;5013458;28;20743;-67
2021/03/09 00:32:43;;;;;;;13.65;6.05;;;;;;;11.49;77.32;101191.31;5013120;28;20137;-67
2021/03/09 00:35:13;;;;;;;10.68;5.35;;;;;;;11.49;77.40;101196.59;5013756;28;20117;-68
2021/03/09 00:37:40;;;;;;;11.07;5.47;;;;;;;11.45;77.33;101194.78;5012842;28;20053;-68
2021/03/09 00:40:08;;;;;;;14.68;5.70;;;;;;;11.44;77.54;101193.88;5013404;28;20705;-68
2021/03/09 00:42:36;;;;;;;12.00;5.82;;;;;;;11.45;77.42;101189.50;5013383;28;20069;-68
2021/03/09 00:45:03;;;;;;;13.15;5.90;;;;;;;11.45;77.33;101203.59;5013927;28;20058;-68
2021/03/09 00:47:30;;;;;;;12.40;5.30;;;;;;;11.45;77.21;101189.50;5013107;28;20081;-68
2021/03/09 00:49:59;;;;;;;13.82;5.93;;;;;;;11.45;77.14;101194.78;5013078;28;20036;-68
2021/03/09 00:52:26;;;;;;;14.55;5.65;;;;;;;11.43;77.13;101181.50;5012725;28;20073;-66
2021/03/09 00:54:54;;;;;;;13.45;5.63;;;;;;;11.33;77.26;101162.81;5013101;28;20034;-68
2021/03/09 00:57:21;;;;;;;12.60;5.20;;;;;;;11.30;77.36;101158.34;5012596;28;20076;-69
2021/03/09 00:59:48;;;;;;;12.95;4.72;;;;;;;11.26;77.41;101156.53;5012287;28;20030;-67
2021/03/09 01:02:15;;;;;;;14.75;5.32;;;;;;;11.25;77.51;101161.78;5012921;28;20050;-67
2021/03/09 01:04:42;;;;;;;9.13;5.05;;;;;;;11.22;77.83;101172.31;4995482;28;20084;-67
2021/03/09 01:07:10;;;;;;;10.82;4.50;;;;;;;11.17;77.80;101164.28;4994957;28;20042;-67
2021/03/09 01:09:38;;;;;;;13.55;6.07;;;;;;;11.15;78.09;101160.72;5004412;28;20068;-67
2021/03/09 01:12:06;;;;;;;13.32;5.38;;;;;;;11.12;78.07;101164.19;5012588;28;20125;-67
2021/03/09 01:14:33;;;;;;;14.50;5.25;;;;;;;11.16;78.03;101166.03;5011750;28;20403;-67
2021/03/09 01:17:01;;;;;;;10.90;5.15;;;;;;;11.19;77.95;101150.25;5011802;28;20071;-67
2021/03/09 01:19:28;;;;;;;20.45;9.60;;;;;;;11.09;77.85;101145.63;5010972;28;20052;-68
2021/03/09 01:21:55;;;;;;;13.20;6.70;;;;;;;10.96;78.11;101132.16;5011967;28;20034;-68
2021/03/09 01:24:22;;;;;;;12.43;6.97;;;;;;;11.03;78.13;101116.44;4998279;28;20070;-68
2021/03/09 01:26:50;;;;;;;13.77;6.18;;;;;;;11.12;78.28;101111.34;5011694;28;20536;-67
2021/03/09 01:29:17;;;;;;;12.60;6.93;;;;;;;11.17;77.54;101122.88;5011685;28;20124;-68
2021/03/09 01:31:44;;;;;;;17.30;6.18;;;;;;;11.21;77.37;101117.69;5011967;28;20125;-67
2021/03/09 01:34:11;;;;;;;11.55;5.03;;;;;;;11.19;77.30;101101.78;5012347;28;20084;-68
2021/03/09 01:36:39;;;;;;;11.70;4.97;;;;;;;11.19;77.00;101107.97;5012166;28;20073;-67
2021/03/09 01:39:06;;;;;;;12.98;5.65;;;;;;;11.14;77.14;101114.91;5011915;28;20410;-67
2021/03/09 01:41:33;;;;;;;10.05;5.30;;;;;;;11.11;77.17;101101.63;5012106;28;20073;-68
2021/03/09 01:44:01;;;;;;;12.73;6.15;;;;;;;11.12;77.21;101105.19;5011870;28;20046;-67
2021/03/09 01:46:29;;;;;;;13.45;5.90;;;;;;;11.12;77.16;101102.53;5011612;28;20050;-67
2021/03/09 01:48:56;;;;;;;12.68;5.40;;;;;;;11.11;77.14;101092.81;5011467;28;20407;-67
2021/03/09 01:51:23;;;;;;;15.00;6.53;;;;;;;11.09;77.08;101091.91;5011845;28;20042;-68
2021/03/09 01:53:51;;;;;;;10.52;5.25;;;;;;;11.07;77.32;101102.44;4994922;28;20045;-67
2021/03/09 01:56:19;;;;;;;17.40;7.93;;;;;;;10.94;77.75;101111.00;5011025;28;20041;-67
2021/03/09 01:58:49;;;;;;;14.70;9.10;;;;;;;10.83;78.10;101103.75;5011013;28;20034;-67
2021/03/09 02:01:17;;;;;;;19.27;8.95;;;;;;;10.88;78.42;101094.16;5011719;28;20765;-67
2021/03/09 02:03:45;;;;;;;15.52;7.32;;;;;;;10.89;78.19;101091.53;5010896;28;20085;-67
2021/03/09 02:06:15;;;;;;;15.95;7.10;;;;;;;10.95;78.09;101089.03;5011783;28;20491;-67
2021/03/09 02:08:42;;;;;;;18.27;8.05;;;;;;;10.93;78.12;101093.38;5010766;28;20526;-67
2021/03/09 02:11:16;;;;;;;12.75;6.18;;;;;;;10.96;77.82;101082.00;5011723;28;20080;-67
2021/03/09 02:13:49;;;;;;;11.45;5.40;;;;;;;10.93;77.62;101064.31;5011383;28;20573;-68
2021/03/09 02:16:24;;;;;;;13.65;5.15;;;;;;;10.92;77.96;101048.44;5008053;28;20410;-66
2021/03/09 02:18:57;;;;;;;10.77;6.35;;;;;;;10.95;78.16;101049.41;5011366;28;20113;-67
2021/03/09 02:21:48;;;;;;;15.50;5.72;;;;;;;11.01;78.01;101044.22;5010968;28;20076;-68
2021/03/09 02:24:37;;;;;;;11.43;5.65;;;;;;;11.01;78.01;101043.34;5011074;28;20502;-68
2021/03/09 02:27:22;;;;;;;12.77;5.18;;;;;;;10.97;78.31;101052.94;5010322;28;20643;-67
2021/03/09 02:30:05;;;;;;;21.38;8.77;;;;;;;10.87;78.85;101052.75;5010722;28;20042;-68
2021/03/09 02:32:38;;;;;;;18.52;10.93;;;;;;;10.87;78.91;101066.84;5010586;28;20037;-67
2021/03/09 02:35:09;;;;;;;16.60;7.93;;;;;;;10.86;79.07;101065.06;5011194;28;20048;-67
2021/03/09 02:37:38;;;;;;;42.13;28.85;;;;;;;10.89;78.97;101062.50;5010714;28;20038;-67
2021/03/09 02:40:10;;;;;;;19.30;9.88;;;;;;;10.94;78.75;101049.38;5010857;28;20124;-67
2021/03/09 02:42:43;;;;;;;13.30;7.00;;;;;;;11.00;78.44;101045.09;5010176;28;20038;-67
2021/03/09 02:45:15;;;;;;;10.95;5.95;;;;;;;11.00;78.41;101058.28;5010412;28;20622;-67
2021/03/09 02:47:46;;;;;;;12.60;5.88;;;;;;;10.99;78.31;101050.34;5010131;28;20042;-67
2021/03/09 02:50:15;;;;;;;13.98;6.28;;;;;;;10.96;78.43;101029.16;5010901;28;20034;-67
2021/03/09 02:52:47;;;;;;;10.55;5.88;;;;;;;10.98;78.37;101020.38;5010420;28;20663;-67
2021/03/09 02:55:16;;;;;;;13.27;5.53;;;;;;;11.04;78.55;101020.50;5008104;28;20096;-67
2021/03/09 02:57:45;;;;;;;12.40;6.47;;;;;;;10.99;78.65;101011.59;5009118;28;20066;-68
2021/03/09 03:00:15;;;;;;;23.42;11.27;;;;;;;10.94;78.84;100989.50;5010133;28;20113;-68
2021/03/09 03:02:43;;;;;;;11.60;6.00;;;;;;;11.01;79.03;101016.91;5010014;28;20117;-68
2021/03/09 03:05:11;;;;;;;11.70;5.93;;;;;;;11.05;78.77;101013.47;5010875;28;20060;-68
2021/03/09 03:07:40;;;;;;;13.93;6.60;;;;;;;11.04;78.48;100980.88;5009357;28;20142;-68
2021/03/09 03:10:13;;;;;;;15.07;6.00;;;;;;;11.01;78.49;100986.09;5010247;28;20117;-67
2021/03/09 03:12:41;;;;;;;17.13;6.90;;;;;;;11.01;78.29;100996.69;5009944;28;20522;-68
2021/03/09 03:15:13;;;;;;;12.68;6.10;;;;;;;11.02;78.57;101010.78;5010405;28;20052;-67
2021/03/09 03:17:43;;;;;;;15.65;6.75;;;;;;;11.02;78.54;101008.13;5009603;28;20030;-68
2021/03/09 03:20:13;;;;;;;70.63;36.88;;;;;;;11.03;78.71;101005.50;5010416;28;20041;-67
2021/03/09 03:22:43;;;;;;;41.80;24.73;;;;;;;11.07;78.85;101011.75;5010313;28;20050;-67
2021/03/09 03:25:13;;;;;;;15.75;9.13;;;;;;;11.12;78.94;101015.34;5009818;28;20042;-67
2021/03/09 03:27:42;;;;;;;13.75;6.20;;;;;;;11.09;78.80;101013.53;5009172;28;20494;-67
2021/03/09 03:30:11;;;;;;;16.35;7.28;;;;;;;11.11;78.63;101005.63;5010154;28;20111;-67
2021/03/09 03:32:40;;;;;;;15.48;7.25;;;;;;;11.02;78.59;100995.81;5009986;28;20403;-68
2021/03/09 03:35:10;;;;;;;13.93;7.03;;;;;;;10.95;78.56;101001.84;5010380;28;20041;-67
2021/03/09 03:37:37;;;;;;;15.13;6.00;;;;;;;10.92;78.94;101016.75;5009213;28;20125;-68
2021/03/09 03:40:07;;;;;;;20.70;10.30;;;;;;;10.95;79.08;101022.97;5010535;28;20042;-68
2021/03/09 03:42:35;;;;;;;14.90;7.30;;;;;;;10.98;79.08;101027.41;4992122;28;20103;-67
2021/03/09 03:45:02;;;;;;;16.80;8.60;;;;;;;11.08;79.11;101027.63;5009685;28;20495;-68
2021/03/09 03:47:30;;;;;;;15.65;8.60;;;;;;;11.12;79.03;101016.25;5009230;28;20044;-68
2021/03/09 03:49:58;;;;;;;16.35;9.73;;;;;;;11.07;79.09;101011.75;5009969;28;20053;-68
2021/03/09 03:52:33;;;;;;;27.95;14.63;;;;;;;11.07;79.43;101011.75;5009290;28;20049;-68
2021/03/09 03:55:06;;;;;;;13.82;7.03;;;;;;;11.02;79.65;101024.88;5010129;28;20065;-68
2021/03/09 03:57:42;;;;;;;17.35;7.65;;;;;;;11.06;79.44;101002.03;5008890;28;20037;-68
2021/03/09 04:00:12;;;;;;;14.27;6.90;;;;;;;11.10;79.22;101007.38;5009855;28;20030;-68
2021/03/09 04:02:39;;;;;;;13.18;6.70;;;;;;;11.09;78.79;101026.72;5008969;28;20064;-68
2021/03/09 04:05:09;;;;;;;8.10;5.15;;;;;;;11.07;78.73;101002.06;5009673;28;20045;-67
2021/03/09 04:07:39;;;;;;;18.52;8.18;;;;;;;11.04;78.76;100991.44;5005629;28;20062;-68
2021/03/09 04:10:08;;;;;;;10.52;5.97;;;;;;;10.95;78.76;100978.09;5009864;28;20064;-68
2021/03/09 04:12:36;;;;;;;14.93;6.30;;;;;;;10.91;79.11;100983.25;5009194;28;20072;-67
2021/03/09 04:15:06;;;;;;;26.65;13.90;;;;;;;10.87;79.26;101011.38;5009578;28;20044;-67
2021/03/09 04:17:35;;;;;;;16.83;9.18;;;;;;;10.90;79.50;101029.00;5008029;28;20092;-68
2021/03/09 04:20:04;;;;;;;18.42;8.20;;;;;;;10.99;79.60;101019.53;5009656;28;20113;-68
2021/03/09 04:22:34;;;;;;;28.15;13.00;;;;;;;11.12;79.47;100995.09;5009655;28;20121;-68
2021/03/09 04:25:01;;;;;;;13.80;6.82;;;;;;;11.18;79.32;100995.19;5009934;28;20419;-67
2021/03/09 04:27:29;;;;;;;21.23;10.55;;;;;;;11.16;79.23;100991.63;4991486;28;20065;-68
2021/03/09 04:29:57;;;;;;;14.35;6.15;;;;;;;11.17;79.47;101000.44;5009633;28;20064;-67
2021/03/09 04:32:26;;;;;;;23.85;12.52;;;;;;;11.18;79.53;100967.88;5008760;28;20053;-68
2021/03/09 04:34:53;;;;;;;21.48;10.38;;;;;;;11.16;79.68;100993.38;5009570;28;20038;-68
2021/03/09 04:37:22;;;;;;;25.50;13.15;;;;;;;11.16;79.55;100981.06;5009712;28;20099;-68
2021/03/09 04:39:51;;;;;;;21.08;11.13;;;;;;;11.11;79.88;100972.19;5009450;28;20399;-68
2021/03/09 04:42:18;;;;;;;18.90;8.40;;;;;;;11.16;79.84;100951.09;5009331;28;20058;-68
2021/03/09 04:44:45;;;;;;;13.07;6.57;;;;;;;11.10;79.58;100943.09;5008807;28;20045;-68
2021/03/09 04:47:13;;;;;;;20.95;13.57;;;;;;;11.01;80.06;100935.03;5009271;28;20030;-67
2021/03/09 04:49:40;;;;;;;34.53;21.55;;;;;;;11.14;79.84;100947.56;5009092;28;20386;-67
2021/03/09 04:52:08;;;;;;;22.17;9.00;;;;;;;11.09;79.97;100955.41;5009493;28;20037;-68
2021/03/09 04:54:36;;;;;;;21.67;8.30;;;;;;;11.08;80.23;100963.31;5009781;28;20061;-68
2021/03/09 04:57:05;;;;;;;12.25;6.60;;;;;;;11.16;79.98;100954.63;5012393;28;20121;-68
2021/03/09 04:59:32;;;;;;;12.65;6.38;;;;;;;11.21;80.06;100907.19;5012629;28;20042;-68
2021/03/09 05:01:59;;;;;;;25.30;11.98;;;;;;;11.36;79.80;100917.97;5011818;28;20164;-67
2021/03/09 05:04:26;;;;;;;16.90;6.57;;;;;;;11.40;79.70;100937.41;5012143;28;20124;-68
2021/03/09 05:06:53;;;;;;;14.38;6.40;;;;;;;11.41;79.74;100963.88;5012763;28;20409;-68
2021/03/09 05:09:21;;;;;;;13.80;6.65;;;;;;;11.41;79.47;100939.19;5012830;28;20157;-67
2021/03/09 05:11:48;;;;;;;14.93;8.93;;;;;;;11.50;79.50;100916.41;5012035;28;20197;-67
2021/03/09 05:14:16;;;;;;;14.00;7.90;;;;;;;11.58;79.80;100932.38;5012616;28;20050;-68
2021/03/09 05:16:43;;;;;;;10.93;5.70;;;;;;;11.51;79.91;100926.13;5012118;28;20121;-68
2021/03/09 05:19:10;;;;;;;14.60;6.53;;;;;;;11.57;80.03;100890.94;5012821;28;20113;-67
2021/03/09 05:21:38;;;;;;;13.95;7.10;;;;;;;11.82;79.85;100911.56;5012487;28;20038;-67
2021/03/09 05:24:06;;;;;;;19.02;12.35;;;;;;;11.92;79.77;100933.75;5011877;28;20072;-68
2021/03/09 05:26:33;;;;;;;23.02;14.38;;;;;;;12.04;79.60;100919.78;5011351;28;20069;-67
2021/03/09 05:29:00;;;;;;;15.75;9.85;;;;;;;12.20;79.48;100929.69;5012751;28;20030;-67
2021/03/09 05:31:29;;;;;;;16.02;6.57;;;;;;;12.55;79.01;100933.59;5012061;28;20041;-67
2021/03/09 05:33:56;;;;;;;10.82;4.82;;;;;;;12.58;78.56;100933.66;5012128;28;20030;-67
2021/03/09 05:36:23;;;;;;;16.05;8.75;;;;;;;12.55;78.15;100959.19;5012149;28;20038;-67
2021/03/09 05:38:50;;;;;;;13.50;7.30;;;;;;;12.63;77.94;100957.53;5011678;28;20120;-67
2021/03/09 05:41:17;;;;;;;17.00;6.03;;;;;;;12.71;77.97;100956.72;5002214;28;20124;-67
2021/03/09 05:43:45;;;;;;;26.15;13.02;;;;;;;12.93;77.07;100922.50;5011721;28;20041;-67
2021/03/09 05:46:13;;;;;;;9.73;4.57;;;;;;;13.12;76.29;100942.97;5011589;28;20081;-66
2021/03/09 05:48:41;;;;;;;7.45;3.08;;;;;;;13.24;74.61;100937.78;5009724;28;20176;-66
2021/03/09 05:51:09;;;;;;;10.52;4.97;;;;;;;13.41;73.27;100922.00;5010661;28;20042;-67
2021/03/09 05:53:36;;;;;;;9.43;5.53;;;;;;;13.62;72.42;100921.25;5010555;28;20124;-66
2021/03/09 05:56:05;;;;;;;16.55;11.05;;;;;;;13.82;72.02;100906.31;5011690;28;20049;-66
2021/03/09 05:58:32;;;;;;;19.25;13.80;;;;;;;13.81;72.52;100925.75;5011361;28;20044;-67
2021/03/09 06:00:59;;;;;;;9.85;5.50;;;;;;;13.94;71.36;100906.38;5011355;28;20049;-67
2021/03/09 06:03:27;;;;;;;13.65;8.48;;;;;;;13.93;71.58;100896.63;5011103;28;20073;-67
2021/03/09 06:05:56;;;;;;;13.52;9.82;;;;;;;14.03;71.13;100882.53;5010711;28;20068;-67
2021/03/09 06:08:23;;;;;;;18.88;11.35;;;;;;;14.03;71.07;100884.28;5018166;28;20509;-67
2021/03/09 06:10:50;;;;;;;13.23;6.05;;;;;;;14.05;71.44;100896.66;5018019;28;20048;-67
2021/03/09 06:13:35;;;;;;;13.55;6.93;;;;;;;14.15;72.07;100894.94;5023475;28;20034;-67
2021/03/09 06:16:03;;;;;;;16.83;4.20;;;;;;;14.28;71.84;100905.59;5014592;28;20589;-67
2021/03/09 06:18:30;;;;;;;16.92;7.40;;;;;;;14.47;70.81;100884.44;5004732;28;20030;-68
2021/03/09 06:21:19;;;;;;;14.57;4.72;;;;;;;14.67;71.15;100893.31;5028781;28;20036;-67
2021/03/09 06:23:46;;;;;;;10.20;4.10;;;;;;;14.70;71.19;100893.34;5028198;28;20109;-67
2021/03/09 06:26:33;;;;;;;9.90;4.68;;;;;;;14.91;69.27;100885.34;5019771;28;20527;-67
2021/03/09 06:29:11;;;;;;;4.70;2.50;;;;;;;15.04;69.82;100883.56;5017147;28;20627;-67
2021/03/09 06:31:39;;;;;;;7.47;3.72;;;;;;;15.18;69.00;100856.97;5017031;28;20091;-67
2021/03/09 06:34:27;;;;;;;10.57;5.90;;;;;;;15.27;67.90;100868.47;5015166;28;20034;-67
2021/03/09 06:37:10;;;;;;;11.70;6.88;;;;;;;15.41;68.28;100885.31;5022926;28;20037;-67
2021/03/09 06:39:51;;;;;;;12.23;7.78;;;;;;;15.54;67.93;100883.53;5026461;28;20049;-67
2021/03/09 06:42:20;;;;;;;9.73;4.78;;;;;;;15.73;63.76;100913.63;5010291;28;20053;-67
2021/03/09 06:44:59;;;;;;;12.25;5.13;;;;;;;15.90;61.57;100895.81;5010438;28;20124;-67
2021/03/09 06:47:40;;;;;;;11.13;3.35;;;;;;;15.99;61.36;100890.47;5008611;28;20133;-68
2021/03/09 06:50:11;;;;;;;6.68;2.25;;;;;;;16.02;61.69;100902.84;5008462;28;20590;-67
2021/03/09 06:52:41;;;;;;;11.18;2.45;;;;;;;16.15;59.72;100893.91;5010222;28;20076;-68
2021/03/09 06:55:11;;;;;;;6.95;2.80;;;;;;;16.37;58.63;100884.03;5010977;28;20518;-67
2021/03/09 06:57:38;;;;;;;10.20;2.15;;;;;;;16.46;55.38;100876.00;5009436;28;20096;-68
2021/03/09 07:00:08;;;;;;;6.10;2.50;;;;;;;16.66;53.69;100880.31;5010641;28;20137;-67
2021/03/09 07:02:36;;;;;;;8.85;3.10;;;;;;;16.73;52.94;100891.81;5010352;28;20401;-68
2021/03/09 07:05:06;;;;;;;8.75;3.17;;;;;;;16.84;51.20;100881.94;5010486;28;20482;-67
2021/03/09 07:07:34;;;;;;;3.78;1.75;;;;;;;16.91;51.24;100869.44;5009700;28;20117;-68
2021/03/09 07:10:05;;;;;;;8.90;2.17;;;;;;;17.09;48.07;100869.28;5010793;28;20490;-69
2021/03/09 07:12:33;;;;;;;7.38;2.83;;;;;;;17.14;48.25;100896.78;5010398;28;20557;-69
2021/03/09 07:15:01;;;;;;;8.77;2.78;;;;;;;17.25;48.48;100884.25;5010222;28;20457;-69
2021/03/09 07:17:30;;;;;;;10.38;3.28;;;;;;;17.37;47.73;100897.47;5008393;28;20088;-69
2021/03/09 07:19:58;;;;;;;11.57;2.58;;;;;;;17.30;46.83;100878.88;5018780;28;20042;-69
2021/03/09 07:22:26;;;;;;;8.60;3.45;;;;;;;17.21;46.63;100852.25;5010534;28;20064;-69
2021/03/09 07:25:00;;;;;;;11.10;4.38;;;;;;;17.10;46.76;100863.06;5010012;28;20092;-70
2021/03/09 07:27:33;;;;;;;10.07;3.57;;;;;;;17.13;47.41;100869.22;5008022;28;20042;-69
2021/03/09 07:30:01;;;;;;;12.20;4.20;;;;;;;17.22;47.81;100844.25;5012273;28;20121;-70
2021/03/09 07:32:31;;;;;;;11.63;4.55;;;;;;;17.44;48.24;100836.91;5010366;28;20121;-69
2021/03/09 07:34:59;;;;;;;7.03;3.17;;;;;;;17.53;49.18;100824.31;4999316;28;20124;-70
2021/03/09 07:37:27;;;;;;;12.55;3.90;;;;;;;17.58;48.44;100808.28;5008625;28;20036;-70
2021/03/09 07:39:54;;;;;;;8.45;3.20;;;;;;;17.64;47.17;100818.91;5018834;28;20112;-68
2021/03/09 07:42:22;;;;;;;7.00;2.78;;;;;;;17.85;46.44;100829.28;5015458;28;20124;-70
2021/03/09 07:44:50;;;;;;;8.88;2.90;;;;;;;18.23;46.13;100843.94;5009361;28;20048;-70
2021/03/09 07:47:19;;;;;;;13.93;5.65;;;;;;;18.30;45.53;100846.50;5003948;28;20034;-70
2021/03/09 07:49:47;;;;;;;6.55;2.05;;;;;;;18.12;45.34;100859.22;5008771;28;20084;-70
2021/03/09 07:52:17;;;;;;;4.47;2.00;;;;;;;18.10;46.08;100850.34;5009843;28;20049;-69
2021/03/09 07:55:29;;;;;;;8.93;2.90;;;;;;;18.14;46.19;100852.06;5009832;28;20045;-70
2021/03/09 07:58:21;;;;;;;9.70;3.08;;;;;;;18.09;46.23;100838.78;5009593;28;20146;-69
2021/03/09 08:00:59;;;;;;;13.52;2.95;;;;;;;18.11;45.13;100834.31;4990472;28;20038;-70
2021/03/09 08:03:30;;;;;;;9.18;2.08;;;;;;;18.12;45.13;100824.47;5007802;28;20038;-71
2021/03/09 08:05:58;;;;;;;7.28;1.58;;;;;;;18.23;45.01;100809.19;5009350;28;20257;-72
2021/03/09 08:08:53;;;;;;;6.60;2.20;;;;;;;18.23;44.58;100798.50;5012180;28;20072;-71
2021/03/09 08:11:39;;;;;;;12.05;2.35;;;;;;;18.25;45.29;100797.56;4975063;28;20053;-71
2021/03/09 08:14:23;;;;;;;8.98;2.67;;;;;;;18.31;45.29;100817.97;5008352;28;20042;-71
2021/03/09 08:16:52;;;;;;;7.95;2.85;;;;;;;18.59;44.91;100818.44;5009254;28;20041;-71
2021/03/09 08:19:43;;;;;;;7.00;2.35;;;;;;;19.04;43.70;100809.63;5008886;28;20054;-71
2021/03/09 08:22:11;;;;;;;10.25;3.05;;;;;;;19.08;44.10;100840.78;4989990;28;20184;-71
2021/03/09 08:24:54;;;;;;;7.65;2.85;;;;;;;19.28;43.26;100816.31;5008710;28;20038;-71
2021/03/09 08:27:38;;;;;;;17.02;7.15;;;;;;;19.12;42.94;100830.91;5010141;28;20117;-71
2021/03/09 08:30:35;;;;;;;9.77;4.07;;;;;;;19.11;42.42;100830.00;5010198;28;20045;-71
2021/03/09 08:33:42;;;;;;;17.60;5.07;;;;;;;19.66;42.46;100847.72;5012543;28;20124;-71
2021/03/09 08:36:32;;;;;;;13.00;5.28;;;;;;;20.24;42.08;100854.50;5013091;28;20124;-72
2021/03/09 08:39:16;;;;;;;11.20;2.70;;;;;;;20.62;41.64;100861.69;5009953;28;20569;-71
2021/03/09 08:42:03;;;;;;;7.75;2.55;;;;;;;20.75;39.93;100855.09;5012181;28;20042;-71
2021/03/09 08:44:30;;;;;;;10.10;3.97;;;;;;;20.51;39.59;100813.69;4993477;28;20046;-71
2021/03/09 08:46:59;;;;;;;10.43;3.17;;;;;;;20.26;39.74;100855.38;4993668;28;20026;-71
2021/03/09 08:49:49;;;;;;;10.02;3.72;;;;;;;20.36;38.51;100832.81;4993367;28;20133;-69
2021/03/09 08:52:41;;;;;;;14.43;4.82;;;;;;;20.26;38.69;100828.56;4993973;28;20052;-71
2021/03/09 08:55:09;;;;;;;8.07;2.85;;;;;;;19.96;39.45;100808.66;4985479;28;20093;-71
2021/03/09 08:57:36;;;;;;;12.88;3.35;;;;;;;19.83;39.88;100791.97;4993249;28;20515;-71
2021/03/09 09:00:07;;;;;;;11.25;5.85;;;;;;;19.78;39.71;100790.31;4993739;28;20049;-71
2021/03/09 09:02:40;;;;;;;8.27;2.42;;;;;;;19.78;39.76;100793.88;5010384;28;20038;-71
2021/03/09 09:05:12;;;;;;;9.75;2.30;;;;;;;20.17;39.73;100796.59;5013267;28;20390;-71
2021/03/09 09:07:41;;;;;;;12.77;2.67;;;;;;;20.75;39.77;100808.59;5012678;28;20070;-71
2021/03/09 09:10:13;;;;;;;8.82;2.53;;;;;;;21.24;38.88;100803.75;5013099;28;20372;-71
2021/03/09 09:12:41;;;;;;;7.20;2.97;;;;;;;21.53;38.49;100807.44;5012222;28;20125;-71
2021/03/09 09:15:23;;;;;;;7.07;3.25;;;;;;;21.29;37.96;100793.75;5012835;28;20421;-71
2021/03/09 09:17:55;;;;;;;16.85;6.30;;;;;;;20.85;38.86;100792.25;5012724;28;20104;-71
2021/03/09 09:20:29;;;;;;;17.38;5.05;;;;;;;20.69;39.25;100783.72;5013033;28;20103;-71
2021/03/09 09:22:56;;;;;;;11.27;2.83;;;;;;;20.50;38.84;100774.34;5012692;28;20521;-71
2021/03/09 09:25:23;;;;;;;11.90;3.58;;;;;;;20.48;39.25;100768.16;5012142;28;20045;-70
2021/03/09 09:27:52;;;;;;;14.55;5.55;;;;;;;20.60;39.05;100740.16;5012656;28;20042;-70
2021/03/09 09:30:23;;;;;;;12.40;4.97;;;;;;;20.85;39.24;100740.38;5012881;28;20487;-71
2021/03/09 09:32:53;;;;;;;13.88;4.07;;;;;;;21.27;39.17;100723.09;5012591;28;20034;-70
2021/03/09 09:35:22;;;;;;;13.18;4.22;;;;;;;21.64;38.99;100756.94;5012655;28;20521;-71
2021/03/09 09:37:56;;;;;;;16.05;3.47;;;;;;;21.98;38.50;100744.28;5011945;28;20495;-71
2021/03/09 09:40:26;;;;;;;14.68;4.18;;;;;;;22.26;37.56;100741.56;5011695;28;20037;-70
2021/03/09 09:42:55;;;;;;;9.48;2.72;;;;;;;22.25;36.83;100748.75;5011770;28;20034;-71
2021/03/09 09:45:22;;;;;;;8.35;2.47;;;;;;;22.16;37.42;100750.88;5012451;28;20168;-70
2021/03/09 09:47:51;;;;;;;14.23;3.97;;;;;;;22.23;37.79;100747.06;4994551;28;20133;-71
2021/03/09 09:50:19;;;;;;;10.85;4.07;;;;;;;22.48;37.10;100763.25;5011564;28;20124;-70
2021/03/09 09:52:58;;;;;;;13.50;3.33;;;;;;;22.78;37.16;100772.13;5012213;28;20754;-71
2021/03/09 09:55:27;;;;;;;15.93;4.53;;;;;;;22.58;36.78;100770.06;5012131;28;20042;-71
2021/03/09 09:57:56;;;;;;;12.10;4.65;;;;;;;22.48;37.11;100747.13;5012039;28;20141;-71
2021/03/09 10:00:28;;;;;;;15.32;4.57;;;;;;;22.22;37.55;100740.78;5012703;28;20514;-71
2021/03/09 10:03:14;;;;;;;13.23;4.18;;;;;;;22.06;37.71;100744.00;5011662;28;20181;-71
2021/03/09 10:05:42;;;;;;;16.92;6.35;;;;;;;22.00;37.34;100745.09;5008995;28;20046;-71
2021/03/09 10:08:11;;;;;;;11.60;4.50;;;;;;;21.89;36.94;100728.38;5011064;28;20044;-70
2021/03/09 10:10:39;;;;;;;15.35;6.35;;;;;;;21.81;37.70;100728.63;5010588;28;20506;-71
2021/03/09 10:13:23;;;;;;;22.17;9.00;;;;;;;21.22;39.47;100721.47;5010248;28;20042;-70
2021/03/09 10:15:50;;;;;;;16.33;7.28;;;;;;;21.25;40.12;100708.84;5024641;28;20150;-71
2021/03/09 10:18:28;;;;;;;17.50;5.75;;;;;;;21.47;40.22;100693.84;5026203;28;20046;-72
2021/03/09 10:21:04;;;;;;;29.13;14.20;;;;;;;21.60;39.64;100694.34;5002787;28;20039;-71
2021/03/09 10:23:33;;;;;;;17.48;7.88;;;;;;;21.72;39.80;100698.47;5006567;28;20145;-70
2021/03/09 10:26:03;;;;;;;24.02;8.10;;;;;;;21.92;40.87;100657.53;5015456;28;20407;-71
2021/03/09 10:28:32;;;;;;;22.00;9.18;;;;;;;22.02;40.26;100630.31;5010614;28;20030;-72
2021/03/09 10:30:59;;;;;;;19.48;7.90;;;;;;;21.75;41.00;100590.88;5011397;28;20169;-71
2021/03/09 10:33:26;;;;;;;22.08;7.25;;;;;;;21.59;40.39;100657.69;5010928;28;20124;-71
2021/03/09 10:36:04;;;;;;;15.93;6.80;;;;;;;21.41;41.20;100640.31;5011478;28;20045;-71
2021/03/09 10:38:33;;;;;;;18.55;5.22;;;;;;;21.25;42.02;100692.75;5024749;28;20049;-71
2021/03/09 10:41:00;;;;;;;20.65;6.55;;;;;;;21.18;41.39;100675.03;5022054;28;20664;-71
2021/03/09 10:43:43;;;;;;;17.13;5.75;;;;;;;21.20;42.15;100669.63;5010146;28;20038;-71
2021/03/09 10:46:12;;;;;;;18.73;7.20;;;;;;;21.29;42.78;100680.97;5011395;28;20405;-71
2021/03/09 10:48:39;;;;;;;20.98;8.85;;;;;;;21.29;43.06;100674.72;5010320;28;20520;-71
2021/03/09 10:51:17;;;;;;;19.27;6.38;;;;;;;21.20;43.94;100666.94;5012527;28;20061;-71
2021/03/09 10:53:45;;;;;;;17.23;8.45;;;;;;;21.04;43.73;100653.94;4997117;28;20123;-71
2021/03/09 10:56:13;;;;;;;20.60;7.53;;;;;;;21.06;44.13;100683.44;4999712;28;20034;-70
2021/03/09 10:58:40;;;;;;;17.35;5.85;;;;;;;21.23;44.31;100686.53;5010261;28;20046;-71
2021/03/09 11:01:07;;;;;;;16.65;7.07;;;;;;;21.23;44.21;100678.47;5010958;28;20080;-70
2021/03/09 11:03:34;;;;;;;19.80;6.25;;;;;;;21.24;44.19;100690.09;5018296;28;20657;-71
2021/03/09 11:06:01;;;;;;;18.05;5.18;;;;;;;21.52;44.33;100696.41;5026399;28;20120;-70
2021/03/09 11:08:28;;;;;;;17.35;5.63;;;;;;;21.72;44.47;100666.22;5030027;28;20116;-70
2021/03/09 11:10:57;;;;;;;15.52;6.13;;;;;;;21.98;43.25;100706.63;5020543;28;20034;-70
2021/03/09 11:13:24;;;;;;;16.10;4.57;;;;;;;22.24;43.15;100711.16;5025896;28;20064;-72
2021/03/09 11:15:51;;;;;;;15.35;4.00;;;;;;;22.57;42.83;100717.22;5011579;28;20403;-70
2021/03/09 11:18:18;;;;;;;14.38;5.38;;;;;;;23.04;43.00;100721.81;5009823;28;20045;-70
2021/03/09 11:20:45;;;;;;;13.88;4.15;;;;;;;23.30;42.36;100720.84;5010022;28;20117;-70
2021/03/09 11:23:12;;;;;;;14.25;4.63;;;;;;;23.60;42.28;100728.75;5010685;28;20121;-70
2021/03/09 11:25:39;;;;;;;40.13;20.40;;;;;;;23.90;42.16;100722.13;5010163;28;20048;-70
2021/03/09 11:28:07;;;;;;;26.00;12.38;;;;;;;24.01;41.68;100736.09;5010435;28;20225;-70
2021/03/09 11:30:34;;;;;;;17.38;5.03;;;;;;;23.84;41.32;100728.66;5011409;28;20588;-70
2021/03/09 11:33:01;;;;;;;19.48;6.18;;;;;;;23.90;41.52;100721.25;5010153;28;20410;-70